createdAt,value
2023-01-20T00:01:51.002Z,54.47
2023-01-20T00:04:20.303Z,52.50
2023-01-20T00:06:49.207Z,57.53
2023-01-20T00:09:19.753Z,54.57
2023-01-20T00:11:48.942Z,57.77
2023-01-20T00:14:17.671Z,55.33
2023-01-20T00:16:46.183Z,54.97
2023-01-20T00:19:15.621Z,52.70
2023-01-20T00:21:44.611Z,51.77
2023-01-20T00:24:13.210Z,56.33
2023-01-20T00:26:43.195Z,52.63
2023-01-20T00:29:11.747Z,53.67
2023-01-20T00:31:40.486Z,60.43
2023-01-20T00:34:10.914Z,60.27
2023-01-20T00:36:39.552Z,58.70
2023-01-20T00:39:08.132Z,63.80
2023-01-20T00:41:36.789Z,55.27
2023-01-20T00:44:07.184Z,54.17
2023-01-20T00:46:35.765Z,53.80
2023-01-20T00:49:04.339Z,49.70
2023-01-20T00:51:32.921Z,54.63
2023-01-20T00:54:01.586Z,54.00
2023-01-20T00:56:30.175Z,51.23
2023-01-20T00:58:58.715Z,49.87
2023-01-20T01:01:28.741Z,51.93
2023-01-20T01:03:57.291Z,51.60
2023-01-20T01:06:25.896Z,50.63
2023-01-20T01:08:54.689Z,52.50
2023-01-20T01:11:23.190Z,56.20
2023-01-20T01:13:51.783Z,50.53
2023-01-20T01:16:20.476Z,52.53
2023-01-20T01:18:50.665Z,51.47
2023-01-20T01:21:19.272Z,48.67
2023-01-20T01:23:47.825Z,53.23
2023-01-20T01:26:16.362Z,56.37
2023-01-20T01:28:45.212Z,54.13
2023-01-20T01:31:13.759Z,54.13
2023-01-20T01:33:42.639Z,51.27
2023-01-20T01:36:15.682Z,49.00
2023-01-20T01:38:44.915Z,53.50
2023-01-20T01:41:27.624Z,51.97
2023-01-20T01:44:05.673Z,50.23
2023-01-20T01:46:34.355Z,52.87
2023-01-20T01:49:08.627Z,52.57
2023-01-20T01:51:41.819Z,51.73
2023-01-20T01:54:14.862Z,51.10
2023-01-20T01:56:45.048Z,52.97
2023-01-20T01:59:16.832Z,51.77
2023-01-20T02:01:49.623Z,49.43
2023-01-20T02:04:21.157Z,48.67
2023-01-20T02:06:55.802Z,53.13
2023-01-20T02:09:25.157Z,50.10
2023-01-20T02:11:56.838Z,49.63
2023-01-20T02:14:30.065Z,51.00
2023-01-20T02:17:04.751Z,52.23
2023-01-20T02:20:06.004Z,49.37
2023-01-20T02:22:44.865Z,48.63
2023-01-20T02:25:40.626Z,46.33
2023-01-20T02:28:44.247Z,44.73
2023-01-20T02:31:37.579Z,43.53
2023-01-20T02:34:17.033Z,45.03
2023-01-20T02:36:49.263Z,49.30
2023-01-20T02:39:27.122Z,45.87
2023-01-20T02:42:02.694Z,55.63
2023-01-20T02:44:44.077Z,50.27
2023-01-20T02:47:16.586Z,46.77
2023-01-20T02:49:54.437Z,50.47
2023-01-20T02:52:26.801Z,44.40
2023-01-20T02:54:59.068Z,35.13
2023-01-20T02:57:32.207Z,48.63
2023-01-20T03:00:06.796Z,50.13
2023-01-20T03:02:37.536Z,48.43
2023-01-20T03:05:10.735Z,46.00
2023-01-20T03:07:45.132Z,48.83
2023-01-20T03:10:17.900Z,45.77
2023-01-20T03:12:51.551Z,47.53
2023-01-20T03:15:25.175Z,42.77
2023-01-20T03:17:54.567Z,46.33
2023-01-20T03:20:24.541Z,48.93
2023-01-20T03:22:53.229Z,44.83
2023-01-20T03:25:22.144Z,44.37
2023-01-20T03:27:50.742Z,42.13
2023-01-20T03:30:20.103Z,43.73
2023-01-20T03:32:50.904Z,44.40
2023-01-20T03:35:19.975Z,40.20
2023-01-20T03:37:50.006Z,45.30
2023-01-20T03:40:19.272Z,44.50
2023-01-20T03:42:57.571Z,46.53
2023-01-20T03:45:33.606Z,48.10
2023-01-20T03:48:09.233Z,45.23
2023-01-20T03:50:44.672Z,47.40
2023-01-20T03:53:24.412Z,47.83
2023-01-20T03:55:57.674Z,45.20
2023-01-20T03:58:30.899Z,47.63
2023-01-20T04:01:01.405Z,44.63
2023-01-20T04:03:47.233Z,46.27
2023-01-20T04:06:17.984Z,41.10
2023-01-20T04:08:52.846Z,47.10
2023-01-20T04:11:22.120Z,56.63
2023-01-20T04:13:52.126Z,52.50
2023-01-20T04:16:30.631Z,51.37
2023-01-20T04:18:59.414Z,42.93
2023-01-20T04:21:35.688Z,47.97
2023-01-20T04:24:11.763Z,44.07
2023-01-20T04:26:40.454Z,44.17
2023-01-20T04:29:12.753Z,43.07
2023-01-20T04:31:41.882Z,45.67
2023-01-20T04:34:14.255Z,44.63
2023-01-20T04:36:43.131Z,44.73
2023-01-20T04:39:13.639Z,39.40
2023-01-20T04:41:42.198Z,39.67
2023-01-20T04:44:10.836Z,46.20
2023-01-20T04:46:39.598Z,47.27
2023-01-20T04:49:08.321Z,45.50
2023-01-20T04:51:37.165Z,45.07
2023-01-20T04:54:06.203Z,46.90
2023-01-20T04:56:36.246Z,47.03
2023-01-20T04:59:05.086Z,46.70
2023-01-20T05:01:33.935Z,46.43
2023-01-20T05:04:02.848Z,49.70
2023-01-20T05:06:31.492Z,42.80
2023-01-20T05:09:00.279Z,30.93
2023-01-20T05:11:29.070Z,45.87
2023-01-20T05:13:59.396Z,47.13
2023-01-20T05:16:32.190Z,49.53
2023-01-20T05:19:04.191Z,47.47
2023-01-20T05:21:35.890Z,60.33
2023-01-20T05:24:06.742Z,34.07
2023-01-20T05:26:35.588Z,44.43
2023-01-20T05:29:05.988Z,44.33
2023-01-20T05:31:34.803Z,48.67
2023-01-20T05:34:04.659Z,46.90
2023-01-20T05:36:37.749Z,47.70
2023-01-20T05:39:06.381Z,50.57
2023-01-20T05:41:37.275Z,47.13
2023-01-20T05:44:08.174Z,52.90
2023-01-20T05:46:36.849Z,49.90
2023-01-20T05:49:05.438Z,51.00
2023-01-20T05:51:34.040Z,49.67
2023-01-20T05:54:02.737Z,55.50
2023-01-20T05:56:31.446Z,60.53
2023-01-20T05:58:59.995Z,62.00
2023-01-20T06:01:30.333Z,56.97
2023-01-20T06:03:59.075Z,62.77
2023-01-20T06:06:27.728Z,60.33
2023-01-20T06:08:56.341Z,53.43
2023-01-20T06:11:25.160Z,50.00
2023-01-20T06:13:54.027Z,50.27
2023-01-20T06:16:22.922Z,50.73
2023-01-20T06:18:52.925Z,49.53
2023-01-20T06:21:21.654Z,49.87
2023-01-20T06:23:50.274Z,51.60
2023-01-20T06:26:19.099Z,51.63
2023-01-20T06:28:47.658Z,51.23
2023-01-20T06:31:17.851Z,51.47
2023-01-20T06:33:46.615Z,56.30
2023-01-20T06:36:17.843Z,51.90
2023-01-20T06:38:50.716Z,52.90
2023-01-20T06:41:35.022Z,52.70
2023-01-20T06:44:03.963Z,52.07
2023-01-20T06:46:32.766Z,49.37
2023-01-20T06:49:04.591Z,50.73
2023-01-20T06:51:38.243Z,48.90
2023-01-20T06:54:07.462Z,48.60
2023-01-20T06:56:36.442Z,53.57
2023-01-20T06:59:05.197Z,47.53
2023-01-20T07:01:34.500Z,51.87
2023-01-20T07:04:03.480Z,47.27
2023-01-20T07:06:35.268Z,46.03
2023-01-20T07:09:04.131Z,46.67
2023-01-20T07:11:32.844Z,53.20
2023-01-20T07:14:01.472Z,49.97
2023-01-20T07:16:30.343Z,47.70
2023-01-20T07:18:59.443Z,46.23
2023-01-20T07:21:29.104Z,49.50
2023-01-20T07:24:02.057Z,53.77
2023-01-20T07:26:31.152Z,48.07
2023-01-20T07:29:00.805Z,50.60
2023-01-20T07:31:32.343Z,48.93
2023-01-20T07:34:01.560Z,48.23
2023-01-20T07:36:34.216Z,53.27
2023-01-20T07:39:08.493Z,46.03
2023-01-20T07:41:41.293Z,42.60
2023-01-20T07:44:14.467Z,47.80
2023-01-20T07:46:59.266Z,44.33
2023-01-20T07:49:33.614Z,46.97
2023-01-20T07:52:10.118Z,50.10
2023-01-20T07:54:44.105Z,51.73
2023-01-20T07:57:13.672Z,48.17
2023-01-20T07:59:45.122Z,50.87
2023-01-20T08:02:20.123Z,47.10
2023-01-20T08:04:52.520Z,54.20
2023-01-20T08:07:26.743Z,51.60
2023-01-20T08:09:57.391Z,52.57
2023-01-20T08:12:31.120Z,50.07
2023-01-20T08:15:00.824Z,52.90
2023-01-20T08:17:31.028Z,51.07
2023-01-20T08:20:00.085Z,50.23
2023-01-20T08:22:31.039Z,45.97
2023-01-20T08:25:04.310Z,44.37
2023-01-20T08:27:35.543Z,46.10
2023-01-20T08:30:04.507Z,48.70
2023-01-20T08:32:35.380Z,44.80
2023-01-20T08:35:06.877Z,46.40
2023-01-20T08:37:40.200Z,44.40
2023-01-20T08:40:14.429Z,43.90
2023-01-20T08:42:47.087Z,44.93
2023-01-20T08:45:18.288Z,42.53
2023-01-20T08:47:51.851Z,42.20
2023-01-20T08:50:28.412Z,40.47
2023-01-20T08:53:01.807Z,45.73
2023-01-20T08:55:38.747Z,42.00
2023-01-20T08:58:12.577Z,41.33
2023-01-20T09:00:52.928Z,45.83
2023-01-20T09:03:28.670Z,42.87
2023-01-20T09:06:06.339Z,49.00
2023-01-20T09:08:45.733Z,43.20
2023-01-20T09:11:24.727Z,50.17
2023-01-20T09:14:01.432Z,58.33
2023-01-20T09:16:44.996Z,53.17
2023-01-20T09:19:17.409Z,54.07
2023-01-20T09:21:52.428Z,55.27
2023-01-20T09:24:24.682Z,66.10
2023-01-20T09:26:55.553Z,56.67
2023-01-20T09:29:28.212Z,53.57
2023-01-20T09:31:59.756Z,56.73
2023-01-20T09:34:56.049Z,55.60
2023-01-20T09:41:10.922Z,61.77
2023-01-20T09:43:56.654Z,47.50
2023-01-20T09:47:15.791Z,25.55
2023-01-20T09:53:42.814Z,55.63
2023-01-20T09:56:17.882Z,50.37
2023-01-20T09:58:54.966Z,44.13
2023-01-20T10:01:32.100Z,48.90
2023-01-20T10:04:12.489Z,54.87
2023-01-20T10:06:50.490Z,48.30
2023-01-20T10:09:33.655Z,53.57
2023-01-20T10:12:09.480Z,50.23
2023-01-20T10:14:49.085Z,49.53
2023-01-20T10:17:27.116Z,50.23
2023-01-20T10:20:04.216Z,53.20
2023-01-20T10:22:41.588Z,49.53
2023-01-20T10:25:19.659Z,56.67
2023-01-20T10:27:55.326Z,54.40
2023-01-20T10:30:35.692Z,50.50
2023-01-20T10:33:13.150Z,44.13
2023-01-20T10:35:50.824Z,44.20
2023-01-20T10:38:26.641Z,52.50
2023-01-20T10:41:07.773Z,57.87
2023-01-20T10:43:41.861Z,58.33
2023-01-20T10:46:29.572Z,44.57
2023-01-20T10:49:29.030Z,51.20
2023-01-20T10:52:16.928Z,52.87
2023-01-20T10:54:54.466Z,50.27
2023-01-20T10:57:25.580Z,56.73
2023-01-20T10:59:59.882Z,54.23
2023-01-20T11:02:39.829Z,51.80
2023-01-20T11:05:27.259Z,49.17
2023-01-20T11:07:59.627Z,45.53
2023-01-20T11:10:31.093Z,48.03
2023-01-20T11:13:02.026Z,52.43
2023-01-20T11:15:33.178Z,52.60
2023-01-20T11:18:29.913Z,58.77
2023-01-20T11:21:02.876Z,42.80
2023-01-20T11:23:38.724Z,45.13
2023-01-20T11:26:11.529Z,45.23
2023-01-20T11:28:50.578Z,52.13
2023-01-20T11:31:20.721Z,49.97
2023-01-20T11:34:37.485Z,50.70
2023-01-20T11:37:25.000Z,49.23
2023-01-20T11:40:34.432Z,45.90
2023-01-20T11:43:15.148Z,43.30
2023-01-20T11:45:44.098Z,44.33
2023-01-20T11:48:21.984Z,57.17
2023-01-20T11:50:57.177Z,53.40
2023-01-20T11:53:28.738Z,47.60
2023-01-20T11:55:59.704Z,48.67
2023-01-20T11:58:30.763Z,49.47
2023-01-20T12:01:05.226Z,49.47
2023-01-20T12:04:11.780Z,54.27
2023-01-20T12:06:52.163Z,42.33
2023-01-20T12:09:24.616Z,42.47
2023-01-20T12:11:59.755Z,38.97
2023-01-20T12:14:34.792Z,38.87
2023-01-20T12:17:20.743Z,36.77
2023-01-20T12:20:03.187Z,40.77
2023-01-20T12:22:44.487Z,38.33
2023-01-20T12:25:22.478Z,38.50
2023-01-20T12:27:58.383Z,40.47
2023-01-20T12:30:43.807Z,34.37
2023-01-20T12:33:20.999Z,37.17
2023-01-20T12:36:24.927Z,37.70
2023-01-20T12:39:29.814Z,38.83
2023-01-20T12:42:24.467Z,33.10
2023-01-20T12:44:58.003Z,32.33
2023-01-20T12:47:45.240Z,34.03
2023-01-20T12:50:24.846Z,30.27
2023-01-20T12:53:10.877Z,33.00
2023-01-20T12:55:52.971Z,32.50
2023-01-20T12:58:36.112Z,21.88
2023-01-20T13:01:44.295Z,23.27
2023-01-20T13:05:39.488Z,31.83
2023-01-20T13:11:52.904Z,23.23
2023-01-20T13:14:26.895Z,28.43
2023-01-20T13:17:02.804Z,31.60
2023-01-20T13:19:34.702Z,25.80
2023-01-20T13:22:12.123Z,26.33
2023-01-20T13:24:43.287Z,29.67
2023-01-20T13:27:14.172Z,27.60
2023-01-20T13:29:53.207Z,30.30
2023-01-20T13:32:36.077Z,31.27
2023-01-20T13:35:43.775Z,29.27
2023-01-20T13:38:20.813Z,25.13
2023-01-20T13:41:45.273Z,27.80
2023-01-20T13:44:38.080Z,23.67
2023-01-20T13:47:11.545Z,23.77
2023-01-20T13:49:54.690Z,26.23
2023-01-20T13:53:04.499Z,28.33
2023-01-20T13:55:54.932Z,30.80
2023-01-20T13:58:26.078Z,34.00
2023-01-20T14:01:53.930Z,35.70
2023-01-20T14:08:23.177Z,28.47
2023-01-20T14:12:06.416Z,27.73
2023-01-20T14:15:45.871Z,25.17
2023-01-20T14:18:55.477Z,25.67
2023-01-20T14:22:08.969Z,26.57
2023-01-20T14:29:01.548Z,26.73
2023-01-20T14:31:41.180Z,25.20
2023-01-20T14:34:27.776Z,31.37
2023-01-20T14:37:03.656Z,30.77
2023-01-20T14:39:33.852Z,31.73
2023-01-20T14:42:05.595Z,33.87
2023-01-20T14:44:37.719Z,33.53
2023-01-20T14:47:46.414Z,34.07
2023-01-20T14:50:30.404Z,32.17
2023-01-20T14:53:17.576Z,34.20
2023-01-20T14:56:08.031Z,34.43
2023-01-20T14:59:14.468Z,36.83
2023-01-20T15:01:54.395Z,36.17
2023-01-20T15:04:24.462Z,36.43
2023-01-20T15:07:02.577Z,40.40
2023-01-20T15:09:34.394Z,34.10
2023-01-20T15:12:35.893Z,32.37
2023-01-20T15:15:20.598Z,31.83
2023-01-20T15:18:20.668Z,33.97
2023-01-20T15:21:16.427Z,31.80
2023-01-20T15:23:53.019Z,29.47
2023-01-20T15:26:35.032Z,32.93
2023-01-20T15:33:13.688Z,28.77
2023-01-20T15:42:48.797Z,27.03
2023-01-20T15:45:18.329Z,26.90
2023-01-20T15:47:48.346Z,28.77
2023-01-20T15:50:20.055Z,29.40
2023-01-20T15:52:48.887Z,35.30
2023-01-20T15:55:19.634Z,31.53
2023-01-20T15:57:53.484Z,25.57
2023-01-20T16:00:24.600Z,23.83
2023-01-20T16:02:53.530Z,23.77
2023-01-20T16:05:22.699Z,25.37
2023-01-20T16:07:51.335Z,25.47
2023-01-20T16:10:22.584Z,24.97
2023-01-20T16:12:52.930Z,25.90
2023-01-20T16:15:21.802Z,27.80
2023-01-20T16:17:53.063Z,24.53
2023-01-20T16:20:24.110Z,26.67
2023-01-20T16:22:53.733Z,26.40
2023-01-20T16:25:22.940Z,28.20
2023-01-20T16:27:53.888Z,34.47
2023-01-20T16:30:24.687Z,38.63
2023-01-20T16:32:55.462Z,51.47
2023-01-20T16:35:25.756Z,41.80
2023-01-20T16:37:54.334Z,36.70
2023-01-20T16:40:24.825Z,42.03
2023-01-20T16:42:56.887Z,44.10
2023-01-20T16:45:30.037Z,42.37
2023-01-20T16:47:59.023Z,45.37
2023-01-20T16:50:28.675Z,35.27
2023-01-20T16:52:58.148Z,34.60
2023-01-20T16:55:30.236Z,43.23
2023-01-20T16:58:00.732Z,31.60
2023-01-20T17:00:32.290Z,33.43
2023-01-20T17:03:13.273Z,36.80
2023-01-20T17:05:55.736Z,37.23
2023-01-20T17:08:30.070Z,41.63
2023-01-20T17:11:04.408Z,46.07
2023-01-20T17:19:10.395Z,30.63
2023-01-20T17:21:49.336Z,31.67
2023-01-20T17:32:04.795Z,31.80
2023-01-20T17:34:37.028Z,39.17
2023-01-20T17:37:06.024Z,44.73
2023-01-20T17:39:34.671Z,35.90
2023-01-20T17:42:03.330Z,39.03
2023-01-20T17:44:31.949Z,28.63
2023-01-20T17:47:02.331Z,21.67
2023-01-20T17:49:31.502Z,33.23
2023-01-20T17:52:00.235Z,34.93
2023-01-20T17:54:28.950Z,39.23
2023-01-20T17:56:57.715Z,32.13
2023-01-20T17:59:27.005Z,30.90
2023-01-20T18:01:56.911Z,32.53
2023-01-20T18:04:27.239Z,31.60
2023-01-20T18:06:56.216Z,31.23
2023-01-20T18:09:24.914Z,29.20
2023-01-20T18:11:56.012Z,27.50
2023-01-20T18:14:24.941Z,26.87
2023-01-20T18:16:54.714Z,33.23
2023-01-20T18:19:23.797Z,29.50
2023-01-20T18:21:54.035Z,25.37
2023-01-20T18:24:22.876Z,32.00
2023-01-20T18:26:51.628Z,28.43
2023-01-20T18:29:20.511Z,31.83
2023-01-20T18:31:49.622Z,35.77
2023-01-20T18:34:18.404Z,39.73
2023-01-20T18:36:49.352Z,28.50
2023-01-20T18:39:21.234Z,30.63
2023-01-20T18:41:51.163Z,28.73
2023-01-20T18:44:20.455Z,29.87
2023-01-20T18:46:49.103Z,34.77
2023-01-20T18:49:18.681Z,34.37
2023-01-20T18:51:47.436Z,35.03
2023-01-20T18:54:18.258Z,29.90
2023-01-20T18:56:48.651Z,28.53
2023-01-20T18:59:17.794Z,35.77
2023-01-20T19:01:46.648Z,26.03
2023-01-20T19:04:15.345Z,26.30
2023-01-20T19:06:46.077Z,26.10
2023-01-20T19:09:16.236Z,27.77
2023-01-20T19:11:44.829Z,26.70
2023-01-20T19:14:16.363Z,25.10
2023-01-20T19:16:49.460Z,24.77
2023-01-20T19:19:19.358Z,19.73
2023-01-20T19:21:50.989Z,23.90
2023-01-20T19:24:21.496Z,24.77
2023-01-20T19:26:50.178Z,24.03
2023-01-20T19:29:20.913Z,27.20
2023-01-20T19:31:51.904Z,24.60
2023-01-20T19:34:21.162Z,25.93
2023-01-20T19:36:50.167Z,25.57
2023-01-20T19:39:19.952Z,29.07
2023-01-20T19:41:48.631Z,26.47
2023-01-20T19:44:17.834Z,26.60
2023-01-20T19:46:47.976Z,30.33
2023-01-20T19:49:16.772Z,26.33
2023-01-20T19:51:48.379Z,32.13
2023-01-20T19:54:17.355Z,29.70
2023-01-20T19:56:47.860Z,23.40
2023-01-20T19:59:19.830Z,22.40
2023-01-20T20:01:50.075Z,25.80
2023-01-20T20:04:20.841Z,24.07
2023-01-20T20:06:52.297Z,27.00
2023-01-20T20:09:26.493Z,18.33
2023-01-20T20:11:56.298Z,32.60
2023-01-20T20:14:27.486Z,29.20
2023-01-20T20:16:57.682Z,31.47
2023-01-20T20:19:29.082Z,29.80
2023-01-20T20:22:00.321Z,24.40
2023-01-20T20:24:29.095Z,21.77
2023-01-20T20:27:00.458Z,24.17
2023-01-20T20:29:34.674Z,22.33
2023-01-20T20:32:05.017Z,20.40
2023-01-20T20:34:34.516Z,20.47
2023-01-20T20:37:03.638Z,19.77
2023-01-20T20:39:32.274Z,23.93
2023-01-20T20:42:01.270Z,21.53
2023-01-20T20:44:31.079Z,22.40
2023-01-20T20:47:02.242Z,35.43
2023-01-20T20:49:32.378Z,18.80
2023-01-20T20:52:01.205Z,16.70
2023-01-20T20:54:30.201Z,17.37
2023-01-20T20:56:58.901Z,22.53
2023-01-20T20:59:27.695Z,21.77
2023-01-20T21:01:56.500Z,22.10
2023-01-20T21:04:25.407Z,22.63
2023-01-20T21:06:55.542Z,18.03
2023-01-20T21:09:24.450Z,18.87
2023-01-20T21:11:53.528Z,17.57
2023-01-20T21:14:24.024Z,20.40
2023-01-20T21:16:52.798Z,16.93
2023-01-20T21:19:21.762Z,18.87
2023-01-20T21:21:50.383Z,16.70
2023-01-20T21:24:26.170Z,16.13
2023-01-20T21:26:54.861Z,18.10
2023-01-20T21:29:23.610Z,75.70
2023-01-20T21:31:53.905Z,14.93
2023-01-20T21:34:22.864Z,14.93
2023-01-20T21:36:51.492Z,15.67
2023-01-20T21:39:21.763Z,15.90
2023-01-20T21:41:50.451Z,15.80
2023-01-20T21:44:30.176Z,16.60
2023-01-20T21:47:00.086Z,16.33
2023-01-20T21:49:46.422Z,27.63
2023-01-20T21:52:34.992Z,14.60
2023-01-20T21:55:06.432Z,21.87
2023-01-20T21:57:35.187Z,15.37
2023-01-20T22:00:06.352Z,14.13
2023-01-20T22:02:35.123Z,14.93
2023-01-20T22:05:04.126Z,17.80
2023-01-20T22:07:32.964Z,16.63
2023-01-20T22:10:01.592Z,15.40
2023-01-20T22:12:34.894Z,43.05
2023-01-20T22:15:05.258Z,38.53
2023-01-20T22:17:34.399Z,29.87
2023-01-20T22:20:03.097Z,30.10
2023-01-20T22:22:31.732Z,13.53
2023-01-20T22:25:00.293Z,22.75
2023-01-20T22:27:30.376Z,36.53
2023-01-20T22:29:58.947Z,32.37
2023-01-20T22:32:28.365Z,62.10
2023-01-20T22:35:01.984Z,16.37
2023-01-20T22:37:33.261Z,14.53
2023-01-20T22:40:05.597Z,14.43
2023-01-20T22:42:35.898Z,13.30
2023-01-20T22:45:06.284Z,12.47
2023-01-20T22:47:34.787Z,14.90
2023-01-20T22:50:04.067Z,15.57
2023-01-20T22:52:32.655Z,14.90
2023-01-20T22:55:01.285Z,14.90
2023-01-20T22:57:31.539Z,19.73
2023-01-20T23:00:03.147Z,18.07
2023-01-20T23:02:32.112Z,16.77
2023-01-20T23:05:01.140Z,18.00
2023-01-20T23:07:35.402Z,26.13
2023-01-20T23:10:04.233Z,21.20
2023-01-20T23:12:32.866Z,34.22
2023-01-20T23:15:03.152Z,26.70
2023-01-20T23:17:34.069Z,30.23
2023-01-20T23:20:02.704Z,29.88
2023-01-20T23:22:31.383Z,24.00
2023-01-20T23:25:00.068Z,24.37
2023-01-20T23:27:29.116Z,26.42
2023-01-20T23:29:57.974Z,22.50
2023-01-20T23:32:28.445Z,21.47
2023-01-20T23:34:57.271Z,25.13
2023-01-20T23:37:26.334Z,24.00
2023-01-20T23:39:55.831Z,37.60
2023-01-20T23:42:24.752Z,31.90
2023-01-20T23:44:54.611Z,40.47
2023-01-20T23:47:23.321Z,27.87
2023-01-20T23:49:53.399Z,25.03
2023-01-20T23:52:22.131Z,21.67
2023-01-20T23:54:55.348Z,29.60
2023-01-20T23:57:26.845Z,20.83
2023-01-20T23:59:56.141Z,38.10
